sensor_id;sensor_type;location;lat;lon;timestamp;temperature;humidity
15262;DHT22;7733;51.554;13.590;2024-02-21T00:00:51;8.30;99.90
15262;DHT22;7733;51.554;13.590;2024-02-21T00:03:17;8.30;99.90
15262;DHT22;7733;51.554;13.590;2024-02-21T00:05:43;8.30;99.90
15262;DHT22;7733;51.554;13.590;2024-02-21T00:08:09;8.30;99.90
15262;DHT22;7733;51.554;13.590;2024-02-21T00:10:35;8.30;99.90
15262;DHT22;7733;51.554;13.590;2024-02-21T00:13:01;8.30;99.90
15262;DHT22;7733;51.554;13.590;2024-02-21T00:15:27;8.30;99.90
15262;DHT22;7733;51.554;13.590;2024-02-21T00:17:53;8.30;99.90
15262;DHT22;7733;51.554;13.590;2024-02-21T00:20:19;8.30;99.90
15262;DHT22;7733;51.554;13.590;2024-02-21T00:22:45;8.30;99.90
15262;DHT22;7733;51.554;13.590;2024-02-21T00:25:11;8.30;99.90
15262;DHT22;7733;51.554;13.590;2024-02-21T00:27:38;8.30;99.90
15262;DHT22;7733;51.554;13.590;2024-02-21T00:30:05;8.30;99.90
15262;DHT22;7733;51.554;13.590;2024-02-21T00:32:31;8.30;99.90
15262;DHT22;7733;51.554;13.590;2024-02-21T00:35:00;8.30;99.90
15262;DHT22;7733;51.554;13.590;2024-02-21T00:37:27;8.30;99.90
15262;DHT22;7733;51.554;13.590;2024-02-21T00:39:54;8.20;99.90
15262;DHT22;7733;51.554;13.590;2024-02-21T00:42:20;8.20;99.90
15262;DHT22;7733;51.554;13.590;2024-02-21T00:44:48;8.20;99.90
15262;DHT22;7733;51.554;13.590;2024-02-21T00:47:13;8.20;99.90
15262;DHT22;7733;51.554;13.590;2024-02-21T00:49:39;8.10;99.90
15262;DHT22;7733;51.554;13.590;2024-02-21T00:52:05;8.10;99.90
15262;DHT22;7733;51.554;13.590;2024-02-21T00:54:31;8.10;99.90
15262;DHT22;7733;51.554;13.590;2024-02-21T00:56:57;8.10;99.90
15262;DHT22;7733;51.554;13.590;2024-02-21T00:59:23;8.10;99.90
15262;DHT22;7733;51.554;13.590;2024-02-21T01:01:49;8.10;99.90
15262;DHT22;7733;51.554;13.590;2024-02-21T01:04:14;8.00;99.90
15262;DHT22;7733;51.554;13.590;2024-02-21T01:06:40;8.00;99.90
15262;DHT22;7733;51.554;13.590;2024-02-21T01:09:08;8.00;99.90
15262;DHT22;7733;51.554;13.590;2024-02-21T01:11:34;8.00;99.90
15262;DHT22;7733;51.554;13.590;2024-02-21T01:13:59;8.00;99.90
15262;DHT22;7733;51.554;13.590;2024-02-21T01:16:26;8.00;99.90
15262;DHT22;7733;51.554;13.590;2024-02-21T01:18:51;8.00;99.90
15262;DHT22;7733;51.554;13.590;2024-02-21T01:21:17;8.00;99.90
15262;DHT22;7733;51.554;13.590;2024-02-21T01:23:43;8.00;99.90
15262;DHT22;7733;51.554;13.590;2024-02-21T01:26:09;8.00;99.90
15262;DHT22;7733;51.554;13.590;2024-02-21T01:28:38;8.00;99.90
15262;DHT22;7733;51.554;13.590;2024-02-21T01:31:04;8.00;99.90
15262;DHT22;7733;51.554;13.590;2024-02-21T01:33:30;8.00;99.90
15262;DHT22;7733;51.554;13.590;2024-02-21T01:36:01;8.00;99.90
15262;DHT22;7733;51.554;13.590;2024-02-21T01:38:28;8.00;99.90
15262;DHT22;7733;51.554;13.590;2024-02-21T01:40:55;8.00;99.90
15262;DHT22;7733;51.554;13.590;2024-02-21T01:43:21;8.00;99.90
15262;DHT22;7733;51.554;13.590;2024-02-21T01:45:49;8.00;99.90
15262;DHT22;7733;51.554;13.590;2024-02-21T01:48:18;8.00;99.90
15262;DHT22;7733;51.554;13.590;2024-02-21T01:50:45;8.00;99.90
15262;DHT22;7733;51.554;13.590;2024-02-21T01:53:13;8.00;99.90
15262;DHT22;7733;51.554;13.590;2024-02-21T01:55:55;8.00;99.90
15262;DHT22;7733;51.554;13.590;2024-02-21T01:58:21;8.00;99.90
15262;DHT22;7733;51.554;13.590;2024-02-21T02:00:48;8.00;99.90
15262;DHT22;7733;51.554;13.590;2024-02-21T02:03:14;7.90;99.90
15262;DHT22;7733;51.554;13.590;2024-02-21T02:05:51;7.90;99.90
15262;DHT22;7733;51.554;13.590;2024-02-21T02:08:19;7.90;99.90
15262;DHT22;7733;51.554;13.590;2024-02-21T02:10:47;7.90;99.90
15262;DHT22;7733;51.554;13.590;2024-02-21T02:13:13;7.90;99.90
15262;DHT22;7733;51.554;13.590;2024-02-21T02:15:44;7.90;99.90
15262;DHT22;7733;51.554;13.590;2024-02-21T02:18:13;7.90;99.90
15262;DHT22;7733;51.554;13.590;2024-02-21T02:20:40;7.90;99.90
15262;DHT22;7733;51.554;13.590;2024-02-21T02:25:49;7.80;99.90
15262;DHT22;7733;51.554;13.590;2024-02-21T02:28:17;7.90;99.90
15262;DHT22;7733;51.554;13.590;2024-02-21T02:30:44;7.90;99.90
15262;DHT22;7733;51.554;13.590;2024-02-21T02:33:10;7.90;99.90
15262;DHT22;7733;51.554;13.590;2024-02-21T02:35:36;7.90;99.90
15262;DHT22;7733;51.554;13.590;2024-02-21T02:38:05;8.00;99.90
15262;DHT22;7733;51.554;13.590;2024-02-21T02:40:33;7.90;99.90
15262;DHT22;7733;51.554;13.590;2024-02-21T02:42:59;7.90;99.90
15262;DHT22;7733;51.554;13.590;2024-02-21T02:45:25;7.90;99.90
15262;DHT22;7733;51.554;13.590;2024-02-21T02:47:52;7.90;99.90
15262;DHT22;7733;51.554;13.590;2024-02-21T02:50:25;7.90;99.90
15262;DHT22;7733;51.554;13.590;2024-02-21T02:52:53;7.90;99.90
15262;DHT22;7733;51.554;13.590;2024-02-21T02:55:19;7.80;99.90
15262;DHT22;7733;51.554;13.590;2024-02-21T02:57:46;7.90;99.90
15262;DHT22;7733;51.554;13.590;2024-02-21T03:00:12;7.90;99.90
15262;DHT22;7733;51.554;13.590;2024-02-21T03:02:40;7.90;99.90
15262;DHT22;7733;51.554;13.590;2024-02-21T03:05:18;7.80;99.90
15262;DHT22;7733;51.554;13.590;2024-02-21T03:07:45;7.90;99.90
15262;DHT22;7733;51.554;13.590;2024-02-21T03:10:12;7.90;99.90
15262;DHT22;7733;51.554;13.590;2024-02-21T03:12:39;7.90;99.90
15262;DHT22;7733;51.554;13.590;2024-02-21T03:15:06;7.90;99.90
15262;DHT22;7733;51.554;13.590;2024-02-21T03:17:32;7.90;99.90
15262;DHT22;7733;51.554;13.590;2024-02-21T03:20:00;7.90;99.90
15262;DHT22;7733;51.554;13.590;2024-02-21T03:22:26;7.90;99.90
15262;DHT22;7733;51.554;13.590;2024-02-21T03:24:52;7.90;99.90
15262;DHT22;7733;51.554;13.590;2024-02-21T03:27:18;7.90;99.90
15262;DHT22;7733;51.554;13.590;2024-02-21T03:29:44;7.90;99.90
15262;DHT22;7733;51.554;13.590;2024-02-21T03:32:10;7.90;99.90
15262;DHT22;7733;51.554;13.590;2024-02-21T03:34:35;7.90;99.90
15262;DHT22;7733;51.554;13.590;2024-02-21T03:37:01;7.90;99.90
15262;DHT22;7733;51.554;13.590;2024-02-21T03:39:27;7.90;99.90
15262;DHT22;7733;51.554;13.590;2024-02-21T03:41:56;7.90;99.90
15262;DHT22;7733;51.554;13.590;2024-02-21T03:44:21;7.90;99.90
15262;DHT22;7733;51.554;13.590;2024-02-21T03:46:47;7.80;99.90
15262;DHT22;7733;51.554;13.590;2024-02-21T03:49:13;7.80;99.90
15262;DHT22;7733;51.554;13.590;2024-02-21T03:51:38;7.80;99.90
15262;DHT22;7733;51.554;13.590;2024-02-21T03:54:04;7.80;99.90
15262;DHT22;7733;51.554;13.590;2024-02-21T03:56:30;7.80;99.90
15262;DHT22;7733;51.554;13.590;2024-02-21T03:58:55;7.80;99.90
15262;DHT22;7733;51.554;13.590;2024-02-21T04:01:21;7.80;99.90
15262;DHT22;7733;51.554;13.590;2024-02-21T04:03:47;7.90;99.90
15262;DHT22;7733;51.554;13.590;2024-02-21T04:06:13;7.90;99.90
15262;DHT22;7733;51.554;13.590;2024-02-21T04:08:39;7.80;99.90
15262;DHT22;7733;51.554;13.590;2024-02-21T04:11:04;7.80;99.90
15262;DHT22;7733;51.554;13.590;2024-02-21T04:13:30;7.80;99.90
15262;DHT22;7733;51.554;13.590;2024-02-21T04:15:56;7.80;99.90
15262;DHT22;7733;51.554;13.590;2024-02-21T04:18:22;7.80;99.90
15262;DHT22;7733;51.554;13.590;2024-02-21T04:20:48;7.80;99.90
15262;DHT22;7733;51.554;13.590;2024-02-21T04:23:13;7.80;99.90
15262;DHT22;7733;51.554;13.590;2024-02-21T04:25:39;7.70;99.90
15262;DHT22;7733;51.554;13.590;2024-02-21T04:28:05;7.80;99.90
15262;DHT22;7733;51.554;13.590;2024-02-21T04:30:31;7.80;99.90
15262;DHT22;7733;51.554;13.590;2024-02-21T04:32:56;7.80;99.90
15262;DHT22;7733;51.554;13.590;2024-02-21T04:35:22;7.70;99.90
15262;DHT22;7733;51.554;13.590;2024-02-21T04:37:49;7.70;99.90
15262;DHT22;7733;51.554;13.590;2024-02-21T04:40:15;7.70;99.90
15262;DHT22;7733;51.554;13.590;2024-02-21T04:42:42;7.70;99.90
15262;DHT22;7733;51.554;13.590;2024-02-21T04:45:08;7.70;99.90
15262;DHT22;7733;51.554;13.590;2024-02-21T04:47:34;7.70;99.90
15262;DHT22;7733;51.554;13.590;2024-02-21T04:50:00;7.70;99.90
15262;DHT22;7733;51.554;13.590;2024-02-21T04:52:26;7.70;99.90
15262;DHT22;7733;51.554;13.590;2024-02-21T04:54:52;7.70;99.90
15262;DHT22;7733;51.554;13.590;2024-02-21T04:57:17;7.70;99.90
15262;DHT22;7733;51.554;13.590;2024-02-21T04:59:46;7.70;99.90
15262;DHT22;7733;51.554;13.590;2024-02-21T05:02:15;7.70;99.90
15262;DHT22;7733;51.554;13.590;2024-02-21T05:04:42;7.70;99.90
15262;DHT22;7733;51.554;13.590;2024-02-21T05:07:08;7.70;99.90
15262;DHT22;7733;51.554;13.590;2024-02-21T05:09:33;7.70;99.90
15262;DHT22;7733;51.554;13.590;2024-02-21T05:11:59;7.70;99.90
15262;DHT22;7733;51.554;13.590;2024-02-21T05:14:26;7.70;99.90
15262;DHT22;7733;51.554;13.590;2024-02-21T05:16:55;7.70;99.90
15262;DHT22;7733;51.554;13.590;2024-02-21T05:19:20;7.70;99.90
15262;DHT22;7733;51.554;13.590;2024-02-21T05:21:46;7.70;99.90
15262;DHT22;7733;51.554;13.590;2024-02-21T05:24:12;7.70;99.90
15262;DHT22;7733;51.554;13.590;2024-02-21T05:26:38;7.70;99.90
15262;DHT22;7733;51.554;13.590;2024-02-21T05:29:03;7.70;99.90
15262;DHT22;7733;51.554;13.590;2024-02-21T05:31:54;7.70;99.90
15262;DHT22;7733;51.554;13.590;2024-02-21T05:34:22;7.70;99.90
15262;DHT22;7733;51.554;13.590;2024-02-21T05:36:48;7.70;99.90
15262;DHT22;7733;51.554;13.590;2024-02-21T05:39:15;7.70;99.90
15262;DHT22;7733;51.554;13.590;2024-02-21T05:41:42;7.80;99.90
15262;DHT22;7733;51.554;13.590;2024-02-21T05:44:08;7.80;99.90
15262;DHT22;7733;51.554;13.590;2024-02-21T05:46:34;7.80;99.90
15262;DHT22;7733;51.554;13.590;2024-02-21T05:49:00;7.70;99.90
15262;DHT22;7733;51.554;13.590;2024-02-21T05:51:26;7.70;99.90
15262;DHT22;7733;51.554;13.590;2024-02-21T05:53:52;7.70;99.90
15262;DHT22;7733;51.554;13.590;2024-02-21T05:56:18;7.70;99.90
15262;DHT22;7733;51.554;13.590;2024-02-21T05:58:44;7.70;99.90
15262;DHT22;7733;51.554;13.590;2024-02-21T06:01:10;7.70;99.90
15262;DHT22;7733;51.554;13.590;2024-02-21T06:03:37;7.70;99.90
15262;DHT22;7733;51.554;13.590;2024-02-21T06:06:03;7.80;99.90
15262;DHT22;7733;51.554;13.590;2024-02-21T06:08:30;7.80;99.90
15262;DHT22;7733;51.554;13.590;2024-02-21T06:10:56;7.80;99.90
15262;DHT22;7733;51.554;13.590;2024-02-21T06:13:23;7.70;99.90
15262;DHT22;7733;51.554;13.590;2024-02-21T06:15:52;7.70;99.90
15262;DHT22;7733;51.554;13.590;2024-02-21T06:18:18;7.70;99.90
15262;DHT22;7733;51.554;13.590;2024-02-21T06:20:45;7.70;99.90
15262;DHT22;7733;51.554;13.590;2024-02-21T06:23:12;7.80;99.90
15262;DHT22;7733;51.554;13.590;2024-02-21T06:25:39;7.80;99.90
15262;DHT22;7733;51.554;13.590;2024-02-21T06:28:05;7.70;99.90
15262;DHT22;7733;51.554;13.590;2024-02-21T06:30:31;7.70;99.90
15262;DHT22;7733;51.554;13.590;2024-02-21T06:32:57;7.70;99.90
15262;DHT22;7733;51.554;13.590;2024-02-21T06:35:23;7.80;99.90
15262;DHT22;7733;51.554;13.590;2024-02-21T06:37:52;7.70;99.90
15262;DHT22;7733;51.554;13.590;2024-02-21T06:40:20;7.80;99.90
15262;DHT22;7733;51.554;13.590;2024-02-21T06:42:47;7.80;99.90
15262;DHT22;7733;51.554;13.590;2024-02-21T06:45:12;7.80;99.90
15262;DHT22;7733;51.554;13.590;2024-02-21T06:47:38;7.90;99.90
15262;DHT22;7733;51.554;13.590;2024-02-21T06:50:04;7.90;99.90
15262;DHT22;7733;51.554;13.590;2024-02-21T06:52:30;7.90;99.90
15262;DHT22;7733;51.554;13.590;2024-02-21T06:54:56;7.90;99.90
15262;DHT22;7733;51.554;13.590;2024-02-21T06:57:22;7.90;99.90
15262;DHT22;7733;51.554;13.590;2024-02-21T06:59:48;7.90;99.90
15262;DHT22;7733;51.554;13.590;2024-02-21T07:02:14;7.90;99.90
15262;DHT22;7733;51.554;13.590;2024-02-21T07:04:40;8.00;99.90
15262;DHT22;7733;51.554;13.590;2024-02-21T07:07:06;8.00;99.90
15262;DHT22;7733;51.554;13.590;2024-02-21T07:09:33;8.00;99.90
15262;DHT22;7733;51.554;13.590;2024-02-21T07:11:59;8.00;99.90
15262;DHT22;7733;51.554;13.590;2024-02-21T07:14:25;8.00;99.90
15262;DHT22;7733;51.554;13.590;2024-02-21T07:16:51;8.10;99.90
15262;DHT22;7733;51.554;13.590;2024-02-21T07:19:17;8.10;99.90
15262;DHT22;7733;51.554;13.590;2024-02-21T07:21:43;8.10;99.90
15262;DHT22;7733;51.554;13.590;2024-02-21T07:24:09;8.10;99.90
15262;DHT22;7733;51.554;13.590;2024-02-21T07:26:35;8.10;99.90
15262;DHT22;7733;51.554;13.590;2024-02-21T07:29:02;8.10;99.90
15262;DHT22;7733;51.554;13.590;2024-02-21T07:31:27;8.20;99.90
15262;DHT22;7733;51.554;13.590;2024-02-21T07:33:53;8.20;99.90
15262;DHT22;7733;51.554;13.590;2024-02-21T07:36:29;8.20;99.90
15262;DHT22;7733;51.554;13.590;2024-02-21T07:38:58;8.20;99.90
15262;DHT22;7733;51.554;13.590;2024-02-21T07:41:25;8.30;99.90
15262;DHT22;7733;51.554;13.590;2024-02-21T07:43:52;8.30;99.90
15262;DHT22;7733;51.554;13.590;2024-02-21T07:46:18;8.30;99.90
15262;DHT22;7733;51.554;13.590;2024-02-21T07:48:45;8.40;99.90
15262;DHT22;7733;51.554;13.590;2024-02-21T07:51:12;8.40;99.90
15262;DHT22;7733;51.554;13.590;2024-02-21T07:53:39;8.40;99.90
15262;DHT22;7733;51.554;13.590;2024-02-21T07:56:12;8.40;99.90
15262;DHT22;7733;51.554;13.590;2024-02-21T07:58:40;8.40;99.90
15262;DHT22;7733;51.554;13.590;2024-02-21T08:01:06;8.40;99.90
15262;DHT22;7733;51.554;13.590;2024-02-21T08:03:32;8.30;99.90
15262;DHT22;7733;51.554;13.590;2024-02-21T08:05:58;8.40;99.90
15262;DHT22;7733;51.554;13.590;2024-02-21T08:08:24;8.40;99.90
15262;DHT22;7733;51.554;13.590;2024-02-21T08:10:50;8.40;99.90
15262;DHT22;7733;51.554;13.590;2024-02-21T08:13:16;8.40;99.90
15262;DHT22;7733;51.554;13.590;2024-02-21T08:15:41;8.40;99.90
15262;DHT22;7733;51.554;13.590;2024-02-21T08:18:08;8.40;99.90
15262;DHT22;7733;51.554;13.590;2024-02-21T08:20:34;8.50;99.90
15262;DHT22;7733;51.554;13.590;2024-02-21T08:23:01;8.40;99.90
15262;DHT22;7733;51.554;13.590;2024-02-21T08:25:27;8.50;99.90
15262;DHT22;7733;51.554;13.590;2024-02-21T08:27:57;8.50;99.90
15262;DHT22;7733;51.554;13.590;2024-02-21T08:30:24;8.50;99.90
15262;DHT22;7733;51.554;13.590;2024-02-21T08:32:50;8.50;99.90
15262;DHT22;7733;51.554;13.590;2024-02-21T08:35:16;8.50;99.90
15262;DHT22;7733;51.554;13.590;2024-02-21T08:37:46;8.50;99.90
15262;DHT22;7733;51.554;13.590;2024-02-21T08:40:13;8.50;99.90
15262;DHT22;7733;51.554;13.590;2024-02-21T08:42:43;8.60;99.90
15262;DHT22;7733;51.554;13.590;2024-02-21T08:45:09;8.60;99.90
15262;DHT22;7733;51.554;13.590;2024-02-21T08:47:35;8.70;99.90
15262;DHT22;7733;51.554;13.590;2024-02-21T08:50:02;8.80;99.90
15262;DHT22;7733;51.554;13.590;2024-02-21T08:52:28;9.00;99.90
15262;DHT22;7733;51.554;13.590;2024-02-21T08:54:54;9.00;99.90
15262;DHT22;7733;51.554;13.590;2024-02-21T08:57:20;9.10;99.90
15262;DHT22;7733;51.554;13.590;2024-02-21T08:59:46;9.30;99.90
15262;DHT22;7733;51.554;13.590;2024-02-21T09:02:13;9.30;99.90
15262;DHT22;7733;51.554;13.590;2024-02-21T09:04:38;9.40;99.90
15262;DHT22;7733;51.554;13.590;2024-02-21T09:07:04;9.50;99.90
15262;DHT22;7733;51.554;13.590;2024-02-21T09:09:30;9.40;99.90
15262;DHT22;7733;51.554;13.590;2024-02-21T09:11:58;9.40;99.90
15262;DHT22;7733;51.554;13.590;2024-02-21T09:14:34;9.40;99.90
15262;DHT22;7733;51.554;13.590;2024-02-21T09:17:03;9.30;99.90
15262;DHT22;7733;51.554;13.590;2024-02-21T09:19:29;9.30;99.90
15262;DHT22;7733;51.554;13.590;2024-02-21T09:21:55;9.30;99.90
15262;DHT22;7733;51.554;13.590;2024-02-21T09:24:20;9.30;99.90
15262;DHT22;7733;51.554;13.590;2024-02-21T09:26:46;9.40;99.90
15262;DHT22;7733;51.554;13.590;2024-02-21T09:29:12;9.40;99.90
15262;DHT22;7733;51.554;13.590;2024-02-21T09:31:38;9.30;99.90
15262;DHT22;7733;51.554;13.590;2024-02-21T09:34:04;9.40;99.90
15262;DHT22;7733;51.554;13.590;2024-02-21T09:36:30;9.40;99.90
15262;DHT22;7733;51.554;13.590;2024-02-21T09:38:56;9.30;99.90
15262;DHT22;7733;51.554;13.590;2024-02-21T09:41:27;9.30;99.90
15262;DHT22;7733;51.554;13.590;2024-02-21T09:43:53;9.30;99.90
15262;DHT22;7733;51.554;13.590;2024-02-21T09:46:24;9.40;99.90
15262;DHT22;7733;51.554;13.590;2024-02-21T09:49:29;9.40;99.90
15262;DHT22;7733;51.554;13.590;2024-02-21T09:52:01;9.30;99.90
15262;DHT22;7733;51.554;13.590;2024-02-21T09:54:30;9.40;99.90
15262;DHT22;7733;51.554;13.590;2024-02-21T09:56:58;9.50;99.90
15262;DHT22;7733;51.554;13.590;2024-02-21T09:59:31;9.50;99.90
15262;DHT22;7733;51.554;13.590;2024-02-21T10:01:57;9.60;99.90
15262;DHT22;7733;51.554;13.590;2024-02-21T10:04:25;9.80;99.90
15262;DHT22;7733;51.554;13.590;2024-02-21T10:06:52;9.80;99.90
15262;DHT22;7733;51.554;13.590;2024-02-21T10:09:26;9.90;99.90
15262;DHT22;7733;51.554;13.590;2024-02-21T10:11:56;9.80;99.90
15262;DHT22;7733;51.554;13.590;2024-02-21T10:14:34;9.90;99.90
15262;DHT22;7733;51.554;13.590;2024-02-21T10:16:59;10.00;99.90
15262;DHT22;7733;51.554;13.590;2024-02-21T10:19:25;9.90;99.90
15262;DHT22;7733;51.554;13.590;2024-02-21T10:22:02;10.10;99.90
15262;DHT22;7733;51.554;13.590;2024-02-21T10:24:29;10.20;99.90
15262;DHT22;7733;51.554;13.590;2024-02-21T10:27:02;10.10;99.90
15262;DHT22;7733;51.554;13.590;2024-02-21T10:29:33;10.10;99.90
15262;DHT22;7733;51.554;13.590;2024-02-21T10:34:40;10.10;99.90
15262;DHT22;7733;51.554;13.590;2024-02-21T10:37:08;10.10;99.90
15262;DHT22;7733;51.554;13.590;2024-02-21T10:39:39;10.10;99.90
15262;DHT22;7733;51.554;13.590;2024-02-21T10:42:06;10.10;99.90
15262;DHT22;7733;51.554;13.590;2024-02-21T10:44:38;10.10;99.90
15262;DHT22;7733;51.554;13.590;2024-02-21T10:47:08;10.10;99.90
15262;DHT22;7733;51.554;13.590;2024-02-21T10:49:39;10.00;99.90
15262;DHT22;7733;51.554;13.590;2024-02-21T10:55:37;10.00;99.90
15262;DHT22;7733;51.554;13.590;2024-02-21T10:58:07;10.00;99.90
15262;DHT22;7733;51.554;13.590;2024-02-21T11:00:37;10.10;99.90
15262;DHT22;7733;51.554;13.590;2024-02-21T11:03:03;10.00;99.90
15262;DHT22;7733;51.554;13.590;2024-02-21T11:05:30;10.10;99.90
15262;DHT22;7733;51.554;13.590;2024-02-21T11:07:57;10.10;99.90
15262;DHT22;7733;51.554;13.590;2024-02-21T11:10:25;10.10;99.90
15262;DHT22;7733;51.554;13.590;2024-02-21T11:13:10;10.10;99.90
15262;DHT22;7733;51.554;13.590;2024-02-21T11:15:36;10.00;99.90
15262;DHT22;7733;51.554;13.590;2024-02-21T11:18:02;10.00;99.90
15262;DHT22;7733;51.554;13.590;2024-02-21T11:20:35;10.10;99.90
15262;DHT22;7733;51.554;13.590;2024-02-21T11:23:02;10.10;99.90
15262;DHT22;7733;51.554;13.590;2024-02-21T11:25:29;10.10;99.90
15262;DHT22;7733;51.554;13.590;2024-02-21T11:28:03;10.10;99.90
15262;DHT22;7733;51.554;13.590;2024-02-21T11:30:36;10.20;99.90
15262;DHT22;7733;51.554;13.590;2024-02-21T11:33:05;10.30;99.90
15262;DHT22;7733;51.554;13.590;2024-02-21T11:35:35;10.20;99.90
15262;DHT22;7733;51.554;13.590;2024-02-21T11:38:13;10.30;99.90
15262;DHT22;7733;51.554;13.590;2024-02-21T11:40:46;10.20;99.90
15262;DHT22;7733;51.554;13.590;2024-02-21T11:43:12;10.30;99.90
15262;DHT22;7733;51.554;13.590;2024-02-21T11:45:38;10.30;99.90
15262;DHT22;7733;51.554;13.590;2024-02-21T11:48:06;10.30;99.90
15262;DHT22;7733;51.554;13.590;2024-02-21T11:50:34;10.40;99.90
15262;DHT22;7733;51.554;13.590;2024-02-21T11:53:05;10.40;99.90
15262;DHT22;7733;51.554;13.590;2024-02-21T11:55:30;10.30;99.90
15262;DHT22;7733;51.554;13.590;2024-02-21T11:57:56;10.50;99.90
15262;DHT22;7733;51.554;13.590;2024-02-21T12:00:22;10.60;99.90
15262;DHT22;7733;51.554;13.590;2024-02-21T12:02:52;10.40;99.90
15262;DHT22;7733;51.554;13.590;2024-02-21T12:05:20;10.50;99.90
15262;DHT22;7733;51.554;13.590;2024-02-21T12:07:46;10.50;99.90
15262;DHT22;7733;51.554;13.590;2024-02-21T12:10:13;10.60;99.90
15262;DHT22;7733;51.554;13.590;2024-02-21T12:12:39;10.60;99.90
15262;DHT22;7733;51.554;13.590;2024-02-21T12:15:06;10.70;99.90
15262;DHT22;7733;51.554;13.590;2024-02-21T12:17:36;10.70;99.90
15262;DHT22;7733;51.554;13.590;2024-02-21T12:20:03;10.80;99.90
15262;DHT22;7733;51.554;13.590;2024-02-21T12:22:31;10.80;99.90
15262;DHT22;7733;51.554;13.590;2024-02-21T12:24:58;10.90;99.90
15262;DHT22;7733;51.554;13.590;2024-02-21T12:27:24;11.00;99.90
15262;DHT22;7733;51.554;13.590;2024-02-21T12:29:51;11.00;99.90
15262;DHT22;7733;51.554;13.590;2024-02-21T12:32:17;11.00;99.90
15262;DHT22;7733;51.554;13.590;2024-02-21T12:34:43;11.00;99.90
15262;DHT22;7733;51.554;13.590;2024-02-21T12:37:09;11.20;99.90
15262;DHT22;7733;51.554;13.590;2024-02-21T12:39:37;11.10;99.90
15262;DHT22;7733;51.554;13.590;2024-02-21T12:42:04;11.10;99.90
15262;DHT22;7733;51.554;13.590;2024-02-21T12:44:30;11.10;99.90
15262;DHT22;7733;51.554;13.590;2024-02-21T12:46:55;11.00;99.90
15262;DHT22;7733;51.554;13.590;2024-02-21T12:49:21;10.90;99.90
15262;DHT22;7733;51.554;13.590;2024-02-21T12:51:47;11.00;99.90
15262;DHT22;7733;51.554;13.590;2024-02-21T12:54:13;11.00;99.90
15262;DHT22;7733;51.554;13.590;2024-02-21T12:56:38;11.00;99.90
15262;DHT22;7733;51.554;13.590;2024-02-21T12:59:05;10.80;99.90
15262;DHT22;7733;51.554;13.590;2024-02-21T13:01:35;10.70;99.90
15262;DHT22;7733;51.554;13.590;2024-02-21T13:04:01;10.70;99.90
15262;DHT22;7733;51.554;13.590;2024-02-21T13:06:28;10.70;99.90
15262;DHT22;7733;51.554;13.590;2024-02-21T13:08:54;10.60;99.90
15262;DHT22;7733;51.554;13.590;2024-02-21T13:11:20;10.70;99.90
15262;DHT22;7733;51.554;13.590;2024-02-21T13:13:46;10.80;99.90
15262;DHT22;7733;51.554;13.590;2024-02-21T13:16:11;10.70;99.90
15262;DHT22;7733;51.554;13.590;2024-02-21T13:18:37;10.70;99.90
15262;DHT22;7733;51.554;13.590;2024-02-21T13:21:06;10.70;99.90
15262;DHT22;7733;51.554;13.590;2024-02-21T13:23:34;10.80;99.90
15262;DHT22;7733;51.554;13.590;2024-02-21T13:26:00;10.80;99.90
15262;DHT22;7733;51.554;13.590;2024-02-21T13:28:26;10.80;99.90
15262;DHT22;7733;51.554;13.590;2024-02-21T13:30:51;10.80;99.90
15262;DHT22;7733;51.554;13.590;2024-02-21T13:33:17;10.80;99.90
15262;DHT22;7733;51.554;13.590;2024-02-21T13:35:43;10.80;99.90
15262;DHT22;7733;51.554;13.590;2024-02-21T13:38:08;10.80;99.90
15262;DHT22;7733;51.554;13.590;2024-02-21T13:40:35;10.80;99.90
15262;DHT22;7733;51.554;13.590;2024-02-21T13:43:01;10.80;99.90
15262;DHT22;7733;51.554;13.590;2024-02-21T13:45:27;10.70;99.90
15262;DHT22;7733;51.554;13.590;2024-02-21T13:47:53;10.70;99.90
15262;DHT22;7733;51.554;13.590;2024-02-21T13:50:21;10.70;99.90
15262;DHT22;7733;51.554;13.590;2024-02-21T13:52:49;10.70;99.90
15262;DHT22;7733;51.554;13.590;2024-02-21T13:55:14;10.70;99.90
15262;DHT22;7733;51.554;13.590;2024-02-21T13:57:40;10.60;99.90
15262;DHT22;7733;51.554;13.590;2024-02-21T14:00:07;10.60;99.90
15262;DHT22;7733;51.554;13.590;2024-02-21T14:02:36;10.60;99.90
15262;DHT22;7733;51.554;13.590;2024-02-21T14:05:02;10.70;99.90
15262;DHT22;7733;51.554;13.590;2024-02-21T14:07:31;10.70;99.90
15262;DHT22;7733;51.554;13.590;2024-02-21T14:09:58;10.70;99.90
15262;DHT22;7733;51.554;13.590;2024-02-21T14:12:24;10.60;99.90
15262;DHT22;7733;51.554;13.590;2024-02-21T14:14:50;10.70;99.90
15262;DHT22;7733;51.554;13.590;2024-02-21T14:17:17;10.70;99.90
15262;DHT22;7733;51.554;13.590;2024-02-21T14:19:43;10.70;99.90
15262;DHT22;7733;51.554;13.590;2024-02-21T14:22:10;10.70;99.90
15262;DHT22;7733;51.554;13.590;2024-02-21T14:24:37;10.80;99.90
15262;DHT22;7733;51.554;13.590;2024-02-21T14:27:02;10.90;99.90
15262;DHT22;7733;51.554;13.590;2024-02-21T14:29:29;11.00;99.90
15262;DHT22;7733;51.554;13.590;2024-02-21T14:31:55;11.20;99.90
15262;DHT22;7733;51.554;13.590;2024-02-21T14:34:20;11.20;99.90
15262;DHT22;7733;51.554;13.590;2024-02-21T14:36:46;11.20;99.90
15262;DHT22;7733;51.554;13.590;2024-02-21T14:39:12;11.00;99.90
15262;DHT22;7733;51.554;13.590;2024-02-21T14:41:37;11.00;99.90
15262;DHT22;7733;51.554;13.590;2024-02-21T14:44:05;11.00;99.90
15262;DHT22;7733;51.554;13.590;2024-02-21T14:46:31;11.10;99.90
15262;DHT22;7733;51.554;13.590;2024-02-21T14:48:57;11.10;99.90
15262;DHT22;7733;51.554;13.590;2024-02-21T14:51:23;11.10;99.90
15262;DHT22;7733;51.554;13.590;2024-02-21T14:53:49;11.10;99.90
15262;DHT22;7733;51.554;13.590;2024-02-21T14:56:15;11.10;99.90
15262;DHT22;7733;51.554;13.590;2024-02-21T14:58:42;11.10;99.90
15262;DHT22;7733;51.554;13.590;2024-02-21T15:01:09;11.10;99.90
15262;DHT22;7733;51.554;13.590;2024-02-21T15:03:35;11.10;99.90
15262;DHT22;7733;51.554;13.590;2024-02-21T15:06:01;11.00;99.90
15262;DHT22;7733;51.554;13.590;2024-02-21T15:08:27;11.00;99.90
15262;DHT22;7733;51.554;13.590;2024-02-21T15:10:54;11.00;99.90
15262;DHT22;7733;51.554;13.590;2024-02-21T15:13:20;11.00;99.90
15262;DHT22;7733;51.554;13.590;2024-02-21T15:15:48;11.00;99.90
15262;DHT22;7733;51.554;13.590;2024-02-21T15:18:17;11.00;99.90
15262;DHT22;7733;51.554;13.590;2024-02-21T15:20:44;11.10;99.90
15262;DHT22;7733;51.554;13.590;2024-02-21T15:23:10;11.10;99.90
15262;DHT22;7733;51.554;13.590;2024-02-21T15:25:36;10.90;99.90
15262;DHT22;7733;51.554;13.590;2024-02-21T15:28:03;10.90;99.90
15262;DHT22;7733;51.554;13.590;2024-02-21T15:30:30;10.90;99.90
15262;DHT22;7733;51.554;13.590;2024-02-21T15:32:59;10.90;99.90
15262;DHT22;7733;51.554;13.590;2024-02-21T15:35:28;10.90;99.90
15262;DHT22;7733;51.554;13.590;2024-02-21T15:37:55;10.80;99.90
15262;DHT22;7733;51.554;13.590;2024-02-21T15:40:22;10.80;99.90
15262;DHT22;7733;51.554;13.590;2024-02-21T15:42:48;10.70;99.90
15262;DHT22;7733;51.554;13.590;2024-02-21T15:45:14;10.60;99.90
15262;DHT22;7733;51.554;13.590;2024-02-21T15:47:40;10.60;99.90